createdAt,value
2018-09-27T00:01:11.323Z,9.03
2018-09-27T00:03:40.008Z,9.23
2018-09-27T00:06:08.802Z,9.63
2018-09-27T00:08:37.468Z,8.73
2018-09-27T00:11:06.145Z,9.73
2018-09-27T00:13:35.089Z,9.70
2018-09-27T00:16:03.768Z,10.27
2018-09-27T00:18:32.420Z,9.47
2018-09-27T00:21:01.119Z,9.17
2018-09-27T00:23:29.790Z,9.50
2018-09-27T00:25:58.468Z,9.37
2018-09-27T00:28:27.153Z,9.77
2018-09-27T00:30:55.898Z,10.33
2018-09-27T00:33:24.575Z,9.50
2018-09-27T00:35:53.267Z,9.63
2018-09-27T00:38:21.963Z,9.77
2018-09-27T00:40:50.608Z,9.70
2018-09-27T00:43:19.547Z,10.27
2018-09-27T00:45:48.185Z,9.83
2018-09-27T00:48:17.519Z,10.87
2018-09-27T00:50:47.160Z,11.13
2018-09-27T00:53:15.828Z,10.63
2018-09-27T00:55:44.495Z,11.27
2018-09-27T00:58:13.247Z,10.97
2018-09-27T01:00:41.972Z,10.60
2018-09-27T01:03:10.673Z,11.07
2018-09-27T01:05:39.325Z,10.90
2018-09-27T01:08:07.943Z,10.30
2018-09-27T01:10:36.609Z,11.00
2018-09-27T01:13:05.327Z,11.43
2018-09-27T01:15:33.992Z,11.47
2018-09-27T01:18:02.629Z,12.00
2018-09-27T01:20:31.352Z,11.10
2018-09-27T01:23:00.030Z,11.70
2018-09-27T01:25:28.614Z,11.67
2018-09-27T01:27:57.588Z,11.43
2018-09-27T01:30:26.231Z,11.00
2018-09-27T01:32:54.883Z,11.27
2018-09-27T01:35:23.598Z,12.07
2018-09-27T01:37:52.243Z,11.70
2018-09-27T01:40:20.887Z,10.80
2018-09-27T01:42:49.561Z,10.20
2018-09-27T01:45:18.239Z,10.63
2018-09-27T01:47:46.870Z,11.30
2018-09-27T01:50:15.547Z,11.70
2018-09-27T01:52:44.278Z,10.97
2018-09-27T01:55:13.011Z,10.87
2018-09-27T01:57:41.684Z,10.67
2018-09-27T02:00:10.323Z,11.93
2018-09-27T02:02:39.023Z,11.30
2018-09-27T02:05:07.714Z,11.87
2018-09-27T02:07:36.434Z,12.30
2018-09-27T02:10:05.111Z,12.57
2018-09-27T02:12:33.750Z,12.27
2018-09-27T02:15:02.475Z,11.83
2018-09-27T02:17:31.211Z,12.00
2018-09-27T02:19:59.862Z,11.63
2018-09-27T02:22:28.548Z,11.90
2018-09-27T02:24:57.194Z,11.83
2018-09-27T02:27:25.894Z,11.57
2018-09-27T02:29:54.551Z,11.70
2018-09-27T02:32:23.165Z,11.13
2018-09-27T02:34:51.812Z,11.73
2018-09-27T02:37:20.453Z,11.23
2018-09-27T02:39:49.095Z,11.70
2018-09-27T02:42:17.768Z,10.87
2018-09-27T02:44:46.511Z,11.33
2018-09-27T02:47:15.310Z,10.10
2018-09-27T02:49:43.979Z,12.50
2018-09-27T02:52:12.690Z,11.70
2018-09-27T02:54:41.372Z,11.37
2018-09-27T02:57:10.483Z,11.73
2018-09-27T02:59:39.087Z,11.73
2018-09-27T03:02:07.725Z,12.20
2018-09-27T03:04:36.470Z,10.97
2018-09-27T03:07:05.160Z,10.57
2018-09-27T03:09:33.832Z,11.57
2018-09-27T03:12:02.511Z,10.53
2018-09-27T03:14:31.128Z,12.60
2018-09-27T03:16:59.811Z,11.60
2018-09-27T03:19:28.439Z,11.33
2018-09-27T03:21:57.078Z,10.10
2018-09-27T03:24:25.725Z,10.83
2018-09-27T03:26:54.411Z,11.50
2018-09-27T03:29:23.085Z,10.93
2018-09-27T03:31:52.112Z,11.17
2018-09-27T03:34:20.806Z,11.00
2018-09-27T03:36:49.486Z,10.67
2018-09-27T03:39:18.180Z,11.03
2018-09-27T03:41:46.864Z,11.00
2018-09-27T03:44:15.540Z,11.50
2018-09-27T03:46:44.671Z,11.00
2018-09-27T03:49:13.315Z,11.23
2018-09-27T03:51:41.967Z,11.00
2018-09-27T03:54:10.640Z,10.90
2018-09-27T03:56:39.320Z,10.67
2018-09-27T03:59:08.035Z,13.40
2018-09-27T04:01:36.723Z,10.93
2018-09-27T04:04:05.342Z,11.43
2018-09-27T04:06:34.010Z,11.27
2018-09-27T04:09:02.697Z,10.63
2018-09-27T04:11:31.785Z,11.77
2018-09-27T04:14:00.412Z,11.27
2018-09-27T04:16:29.047Z,10.90
2018-09-27T04:18:57.751Z,11.83
2018-09-27T04:21:26.409Z,12.23
2018-09-27T04:23:55.164Z,12.40
2018-09-27T04:26:23.763Z,11.00
2018-09-27T04:28:52.738Z,11.40
2018-09-27T04:31:21.419Z,10.03
2018-09-27T04:33:50.106Z,11.00
2018-09-27T04:36:19.102Z,10.27
2018-09-27T04:38:47.778Z,10.37
2018-09-27T04:41:16.455Z,12.03
2018-09-27T04:43:45.114Z,11.50
2018-09-27T04:46:14.169Z,11.37
2018-09-27T04:48:42.877Z,10.57
2018-09-27T04:51:11.583Z,10.97
2018-09-27T04:53:40.188Z,11.23
2018-09-27T04:56:08.859Z,11.73
2018-09-27T04:58:37.539Z,12.00
2018-09-27T05:01:06.409Z,11.60
2018-09-27T05:03:35.093Z,11.57
2018-09-27T05:06:03.777Z,10.40
2018-09-27T05:08:32.460Z,11.70
2018-09-27T05:11:01.648Z,12.23
2018-09-27T05:13:30.314Z,11.60
2018-09-27T05:15:59.087Z,11.20
2018-09-27T05:18:27.679Z,12.47
2018-09-27T05:20:56.333Z,11.20
2018-09-27T05:23:25.052Z,12.00
2018-09-27T05:25:53.683Z,11.67
2018-09-27T05:28:22.380Z,10.93
2018-09-27T05:30:51.083Z,11.10
2018-09-27T05:33:19.751Z,11.07
2018-09-27T05:35:48.399Z,13.60
2018-09-27T05:38:17.085Z,12.83
2018-09-27T05:40:45.768Z,11.83
2018-09-27T05:43:14.464Z,11.20
2018-09-27T05:45:43.153Z,12.00
2018-09-27T05:48:11.896Z,11.37
2018-09-27T05:50:40.589Z,10.43
2018-09-27T05:53:09.275Z,11.03
2018-09-27T05:55:38.104Z,10.37
2018-09-27T05:58:06.844Z,11.73
2018-09-27T06:00:35.555Z,12.03
2018-09-27T06:03:04.243Z,11.70
2018-09-27T06:05:32.897Z,11.47
2018-09-27T06:08:01.614Z,11.47
2018-09-27T06:10:30.680Z,10.80
2018-09-27T06:12:59.893Z,11.40
2018-09-27T06:15:28.572Z,11.80
2018-09-27T06:17:57.168Z,11.10
2018-09-27T06:20:25.814Z,12.17
2018-09-27T06:22:54.464Z,10.73
2018-09-27T06:25:23.116Z,11.30
2018-09-27T06:27:51.832Z,12.83
2018-09-27T06:30:20.508Z,10.20
2018-09-27T06:32:49.467Z,10.20
2018-09-27T06:35:18.413Z,10.50
2018-09-27T06:37:47.060Z,10.93
2018-09-27T06:40:15.729Z,11.00
2018-09-27T06:42:44.389Z,11.23
2018-09-27T06:45:13.048Z,11.00
2018-09-27T06:47:41.740Z,10.30
2018-09-27T06:50:10.371Z,10.40
2018-09-27T06:52:39.016Z,10.10
2018-09-27T06:55:08.101Z,11.07
2018-09-27T06:57:36.726Z,10.83
2018-09-27T07:00:05.475Z,9.80
2018-09-27T07:02:34.196Z,10.10
2018-09-27T07:05:02.866Z,9.50
2018-09-27T07:07:31.496Z,9.50
2018-09-27T07:10:00.096Z,10.37
2018-09-27T07:12:28.872Z,10.90
2018-09-27T07:14:57.365Z,11.20
2018-09-27T07:17:27.055Z,10.13
2018-09-27T07:19:55.630Z,9.90
2018-09-27T07:22:24.211Z,10.60
2018-09-27T07:24:52.830Z,10.97
2018-09-27T07:27:21.438Z,9.90
2018-09-27T07:29:50.091Z,10.67
2018-09-27T07:32:18.662Z,9.33
2018-09-27T07:34:47.259Z,9.90
2018-09-27T07:37:15.886Z,10.70
2018-09-27T07:39:44.512Z,11.33
2018-09-27T07:42:13.096Z,11.10
2018-09-27T07:44:41.785Z,10.60
2018-09-27T07:47:10.331Z,11.33
2018-09-27T07:49:38.920Z,11.40
2018-09-27T07:52:07.558Z,11.60
2018-09-27T07:54:36.224Z,10.40
2018-09-27T07:57:04.784Z,11.10
2018-09-27T07:59:33.359Z,11.00
2018-09-27T08:02:01.977Z,11.73
2018-09-27T08:04:30.567Z,12.43
2018-09-27T08:06:59.178Z,12.17
2018-09-27T08:09:27.766Z,13.23
2018-09-27T08:11:56.451Z,12.67
2018-09-27T08:14:25.078Z,12.73
2018-09-27T08:16:53.711Z,12.37
2018-09-27T08:19:22.312Z,13.70
2018-09-27T08:21:50.887Z,11.97
2018-09-27T08:24:19.466Z,13.60
2018-09-27T08:26:48.103Z,13.10
2018-09-27T08:29:16.687Z,14.17
2018-09-27T08:31:45.307Z,12.27
2018-09-27T08:34:13.891Z,13.37
2018-09-27T08:36:42.847Z,13.77
2018-09-27T08:39:12.759Z,12.97
2018-09-27T08:41:41.382Z,13.03
2018-09-27T08:44:11.068Z,12.07
2018-09-27T08:46:40.063Z,12.87
2018-09-27T08:49:08.722Z,13.43
2018-09-27T08:51:37.345Z,13.30
2018-09-27T08:54:06.094Z,12.30
2018-09-27T08:56:34.828Z,12.13
2018-09-27T08:59:03.445Z,13.00
2018-09-27T09:01:32.098Z,10.50
2018-09-27T09:04:00.785Z,13.03
2018-09-27T09:06:29.349Z,11.80
2018-09-27T09:08:57.958Z,12.90
2018-09-27T09:11:26.576Z,11.40
2018-09-27T09:13:55.152Z,12.47
2018-09-27T09:16:23.819Z,12.07
2018-09-27T09:18:52.438Z,11.30
2018-09-27T09:21:21.038Z,11.80
2018-09-27T09:23:49.663Z,11.67
2018-09-27T09:26:18.270Z,12.67
2018-09-27T09:28:46.863Z,13.30
2018-09-27T09:31:15.478Z,13.07
2018-09-27T09:33:44.142Z,11.80
2018-09-27T09:36:12.690Z,11.60
2018-09-27T09:38:41.280Z,13.17
2018-09-27T09:41:09.953Z,11.20
2018-09-27T09:43:38.574Z,12.13
2018-09-27T09:46:07.263Z,12.00
2018-09-27T09:48:36.158Z,12.10
2018-09-27T09:51:04.735Z,12.90
2018-09-27T09:53:33.538Z,13.20
2018-09-27T09:56:02.192Z,12.77
2018-09-27T09:58:30.792Z,12.17
2018-09-27T10:00:59.659Z,12.60
2018-09-27T10:03:28.255Z,13.07
2018-09-27T10:05:56.820Z,11.83
2018-09-27T10:08:25.496Z,12.50
2018-09-27T10:10:54.259Z,12.40
2018-09-27T10:13:22.843Z,11.27
2018-09-27T10:15:51.472Z,11.23
2018-09-27T10:18:20.195Z,11.73
2018-09-27T10:20:48.787Z,10.70
2018-09-27T10:23:17.655Z,10.17
2018-09-27T10:25:46.227Z,11.80
2018-09-27T10:28:14.796Z,12.40
2018-09-27T10:30:43.411Z,10.50
2018-09-27T10:33:12.026Z,11.10
2018-09-27T10:35:40.659Z,9.20
2018-09-27T10:38:09.267Z,10.23
2018-09-27T10:40:37.880Z,10.37
2018-09-27T10:43:07.387Z,10.50
2018-09-27T10:45:36.139Z,11.63
2018-09-27T10:48:04.775Z,11.53
2018-09-27T10:50:33.411Z,11.90
2018-09-27T10:53:02.049Z,11.00
2018-09-27T10:55:30.726Z,11.60
2018-09-27T10:57:59.336Z,10.37
2018-09-27T11:00:27.963Z,11.00
2018-09-27T11:02:56.603Z,10.40
2018-09-27T11:05:25.226Z,11.40
2018-09-27T11:07:53.851Z,11.53
2018-09-27T11:10:22.471Z,10.90
2018-09-27T11:12:51.071Z,10.87
2018-09-27T11:15:19.679Z,10.00
2018-09-27T11:17:48.278Z,10.60
2018-09-27T11:20:16.894Z,11.63
2018-09-27T11:22:45.547Z,11.33
2018-09-27T11:25:14.137Z,11.73
2018-09-27T11:27:42.816Z,12.47
2018-09-27T11:30:16.542Z,12.67
2018-09-27T11:32:45.991Z,11.70
2018-09-27T11:35:14.987Z,11.60
2018-09-27T11:37:43.603Z,11.43
2018-09-27T11:40:12.282Z,12.37
2018-09-27T11:42:40.908Z,11.70
2018-09-27T11:45:09.740Z,11.77
2018-09-27T11:47:38.384Z,12.50
2018-09-27T11:50:07.235Z,11.73
2018-09-27T11:52:35.801Z,11.97
2018-09-27T11:55:04.549Z,12.03
2018-09-27T11:57:33.400Z,11.90
2018-09-27T12:00:02.767Z,12.73
2018-09-27T12:02:31.605Z,12.50
2018-09-27T12:05:00.840Z,11.50
2018-09-27T12:07:29.785Z,12.63
2018-09-27T12:09:58.815Z,11.07
2018-09-27T12:12:27.895Z,11.70
2018-09-27T12:14:56.744Z,11.83
2018-09-27T12:17:25.609Z,10.70
2018-09-27T12:19:54.504Z,13.53
2018-09-27T12:22:23.581Z,13.20
2018-09-27T12:24:52.371Z,11.20
2018-09-27T12:27:21.112Z,11.93
2018-09-27T12:29:49.857Z,11.17
2018-09-27T12:32:18.487Z,11.07
2018-09-27T12:34:47.180Z,11.10
2018-09-27T12:37:15.791Z,11.07
2018-09-27T12:39:44.463Z,11.17
2018-09-27T12:42:13.223Z,12.13
2018-09-27T12:44:41.700Z,11.30
2018-09-27T12:47:10.315Z,11.20
2018-09-27T12:49:38.939Z,11.63
2018-09-27T12:52:07.808Z,11.70
2018-09-27T12:54:36.635Z,10.70
2018-09-27T12:57:05.245Z,10.53
2018-09-27T12:59:33.903Z,11.70
2018-09-27T13:02:02.834Z,10.67
2018-09-27T13:04:31.345Z,11.00
2018-09-27T13:07:00.028Z,10.40
2018-09-27T13:09:28.786Z,11.63
2018-09-27T13:11:57.392Z,9.50
2018-09-27T13:14:26.478Z,9.70
2018-09-27T13:16:55.172Z,10.37
2018-09-27T13:19:23.786Z,9.67
2018-09-27T13:21:52.404Z,8.90
2018-09-27T13:24:21.093Z,10.67
2018-09-27T13:26:49.775Z,11.60
2018-09-27T13:29:18.399Z,11.00
2018-09-27T13:31:47.031Z,10.27
2018-09-27T13:34:15.666Z,10.83
2018-09-27T13:36:44.339Z,9.83
2018-09-27T13:39:13.062Z,9.60
2018-09-27T13:41:41.613Z,10.90
2018-09-27T13:44:10.255Z,10.83
2018-09-27T13:46:38.980Z,10.47
2018-09-27T13:49:07.958Z,10.10
2018-09-27T13:51:36.816Z,11.47
2018-09-27T13:54:05.941Z,10.10
2018-09-27T13:56:35.532Z,10.93
2018-09-27T13:59:04.646Z,10.43
2018-09-27T14:01:33.769Z,10.10
2018-09-27T14:04:02.703Z,10.50
2018-09-27T14:06:31.908Z,10.70
2018-09-27T14:09:01.912Z,12.10
2018-09-27T14:11:31.506Z,10.80
2018-09-27T14:14:01.231Z,9.90
2018-09-27T14:16:31.227Z,11.77
2018-09-27T14:19:00.736Z,11.20
2018-09-27T14:21:31.051Z,11.87
2018-09-27T14:23:59.913Z,11.50
2018-09-27T14:26:28.651Z,10.30
2018-09-27T14:28:58.075Z,11.70
2018-09-27T14:31:27.281Z,10.53
2018-09-27T14:33:57.312Z,10.87
2018-09-27T14:36:26.912Z,9.33
2018-09-27T14:38:57.853Z,9.27
2018-09-27T14:41:27.877Z,10.87
2018-09-27T14:43:58.184Z,9.60
2018-09-27T14:46:27.277Z,10.80
2018-09-27T14:48:58.452Z,10.30
2018-09-27T14:51:29.268Z,12.00
2018-09-27T14:54:00.785Z,11.20
2018-09-27T14:56:30.502Z,9.93
2018-09-27T14:59:00.836Z,11.07
2018-09-27T15:01:30.690Z,13.90
2018-09-27T15:04:00.350Z,11.80
2018-09-27T15:06:30.176Z,13.37
2018-09-27T15:09:00.601Z,12.93
2018-09-27T15:11:31.047Z,12.60
2018-09-27T15:14:00.651Z,11.73
2018-09-27T15:16:30.485Z,11.20
2018-09-27T15:19:00.979Z,11.07
2018-09-27T15:21:31.887Z,11.73
2018-09-27T15:24:03.043Z,13.67
2018-09-27T15:26:33.076Z,11.63
2018-09-27T15:29:03.867Z,11.50
2018-09-27T15:31:35.261Z,11.10
2018-09-27T15:34:07.023Z,10.60
2018-09-27T15:36:38.376Z,10.87
2018-09-27T15:39:09.741Z,12.03
2018-09-27T15:41:39.528Z,11.13
2018-09-27T15:44:09.869Z,9.80
2018-09-27T15:46:38.886Z,11.67
2018-09-27T15:49:08.075Z,10.20
2018-09-27T15:51:37.842Z,11.87
2018-09-27T15:54:07.665Z,10.83
2018-09-27T15:56:37.071Z,11.23
2018-09-27T15:59:05.990Z,9.70
2018-09-27T16:01:36.262Z,9.70
2018-09-27T16:04:05.921Z,12.13
2018-09-27T16:06:34.554Z,9.17
2018-09-27T16:09:05.798Z,9.50
2018-09-27T16:11:35.991Z,11.40
2018-09-27T16:14:06.409Z,11.93
2018-09-27T16:16:35.815Z,11.17
2018-09-27T16:19:05.529Z,10.47
2018-09-27T16:21:35.068Z,11.00
2018-09-27T16:24:05.326Z,9.33
2018-09-27T16:26:34.243Z,9.90
2018-09-27T16:29:06.238Z,9.73
2018-09-27T16:31:36.382Z,9.83
2018-09-27T16:34:06.104Z,9.63
2018-09-27T16:36:37.100Z,9.00
2018-09-27T16:39:10.133Z,9.30
2018-09-27T16:41:40.680Z,9.37
2018-09-27T16:44:13.219Z,9.70
2018-09-27T16:46:43.454Z,10.40
2018-09-27T16:49:15.304Z,9.37
2018-09-27T16:51:45.814Z,9.77
2018-09-27T16:54:16.468Z,10.23
2018-09-27T16:56:48.729Z,9.80
2018-09-27T16:59:20.833Z,10.30
2018-09-27T17:01:50.528Z,11.30
2018-09-27T17:04:22.836Z,9.77
2018-09-27T17:06:55.768Z,9.93
2018-09-27T17:09:26.085Z,10.53
2018-09-27T17:11:58.711Z,10.77
2018-09-27T17:14:32.032Z,10.63
2018-09-27T17:17:02.113Z,10.37
2018-09-27T17:19:36.427Z,9.93
2018-09-27T17:22:09.204Z,10.40
2018-09-27T17:24:42.563Z,15.00
2018-09-27T17:27:14.839Z,17.63
2018-09-27T17:29:47.925Z,13.97
2018-09-27T17:32:20.880Z,13.10
2018-09-27T17:34:51.628Z,10.90
2018-09-27T17:37:24.392Z,11.33
2018-09-27T17:39:59.460Z,11.17
2018-09-27T17:42:33.851Z,10.77
2018-09-27T17:45:05.142Z,10.23
2018-09-27T17:47:38.459Z,10.00
2018-09-27T17:50:12.113Z,10.20
2018-09-27T17:52:41.082Z,10.83
2018-09-27T17:55:09.697Z,10.10
2018-09-27T17:57:38.314Z,8.77
2018-09-27T18:00:07.077Z,10.03
2018-09-27T18:02:35.812Z,8.77
2018-09-27T18:05:04.933Z,8.87
2018-09-27T18:07:33.898Z,9.77
2018-09-27T18:10:02.845Z,10.47
2018-09-27T18:12:31.491Z,10.70
2018-09-27T18:15:00.145Z,13.67
2018-09-27T18:17:28.867Z,17.90
2018-09-27T18:19:57.416Z,16.53
2018-09-27T18:22:26.150Z,16.73
2018-09-27T18:24:54.773Z,15.80
2018-09-27T18:27:23.426Z,15.43
2018-09-27T18:29:52.036Z,16.70
2018-09-27T18:32:20.636Z,14.10
2018-09-27T18:34:49.248Z,15.00
2018-09-27T18:37:17.855Z,13.50
2018-09-27T18:39:46.480Z,14.70
2018-09-27T18:42:15.236Z,14.70
2018-09-27T18:44:44.148Z,14.13
2018-09-27T18:47:12.802Z,15.10
2018-09-27T18:49:41.408Z,13.37
2018-09-27T18:52:10.074Z,12.10
2018-09-27T18:54:38.677Z,13.00
2018-09-27T18:57:07.459Z,14.87
2018-09-27T18:59:36.125Z,13.10
2018-09-27T19:02:04.767Z,13.20
2018-09-27T19:04:33.480Z,12.60
2018-09-27T19:07:02.155Z,12.03
2018-09-27T19:09:30.783Z,12.57
2018-09-27T19:11:59.382Z,13.13
2018-09-27T19:14:28.043Z,11.60
2018-09-27T19:16:56.736Z,12.43
2018-09-27T19:19:25.385Z,12.03
2018-09-27T19:21:54.025Z,11.47
2018-09-27T19:24:22.663Z,12.73
2018-09-27T19:26:51.331Z,11.73
2018-09-27T19:29:20.002Z,12.47
2018-09-27T19:31:48.667Z,11.67
2018-09-27T19:34:17.252Z,12.83
2018-09-27T19:36:45.876Z,12.57
2018-09-27T19:39:14.542Z,13.70
2018-09-27T19:41:43.269Z,11.93
2018-09-27T19:44:11.918Z,13.77
2018-09-27T19:46:40.591Z,13.20
2018-09-27T19:49:09.521Z,12.00
2018-09-27T19:51:38.183Z,14.13
2018-09-27T19:54:06.852Z,11.90
2018-09-27T19:56:35.503Z,11.97
2018-09-27T19:59:04.235Z,14.03
2018-09-27T20:01:32.875Z,13.07
2018-09-27T20:04:01.563Z,14.37
2018-09-27T20:06:30.303Z,13.27
2018-09-27T20:08:58.936Z,12.80
2018-09-27T20:11:27.691Z,15.53
2018-09-27T20:13:56.351Z,14.30
2018-09-27T20:16:25.349Z,13.33
2018-09-27T20:18:53.823Z,14.43
2018-09-27T20:21:22.427Z,14.37
2018-09-27T20:23:51.118Z,13.73
2018-09-27T20:26:19.746Z,16.27
2018-09-27T20:28:48.440Z,17.10
2018-09-27T20:31:17.076Z,19.10
2018-09-27T20:33:45.703Z,16.30
2018-09-27T20:36:14.360Z,17.07
2018-09-27T20:38:43.008Z,20.30
2018-09-27T20:41:11.663Z,19.13
2018-09-27T20:43:40.311Z,18.37
2018-09-27T20:46:08.975Z,18.87
2018-09-27T20:48:37.643Z,17.40
2018-09-27T20:51:06.375Z,19.10
2018-09-27T20:53:35.085Z,19.37
2018-09-27T20:56:03.707Z,18.00
2018-09-27T20:58:32.419Z,18.90
2018-09-27T21:01:01.079Z,20.50
2018-09-27T21:03:29.688Z,17.93
2018-09-27T21:05:58.388Z,19.30
2018-09-27T21:08:27.007Z,18.70
2018-09-27T21:10:55.723Z,17.87
2018-09-27T21:13:24.398Z,19.23
2018-09-27T21:15:53.022Z,17.33
2018-09-27T21:18:21.666Z,18.40
2018-09-27T21:20:51.167Z,17.27
2018-09-27T21:23:19.739Z,18.10
2018-09-27T21:25:48.368Z,18.87
2018-09-27T21:28:17.079Z,16.90
2018-09-27T21:30:45.700Z,17.43
2018-09-27T21:33:14.296Z,17.93
2018-09-27T21:35:42.964Z,18.40
2018-09-27T21:38:11.619Z,17.87
2018-09-27T21:40:40.279Z,17.93
2018-09-27T21:43:08.932Z,18.00
2018-09-27T21:45:37.580Z,19.10
2018-09-27T21:48:06.551Z,18.90
2018-09-27T21:50:35.143Z,18.30
2018-09-27T21:53:03.804Z,18.33
2018-09-27T21:55:32.439Z,18.03
2018-09-27T21:58:01.100Z,18.50
2018-09-27T22:00:29.743Z,20.30
2018-09-27T22:02:58.352Z,19.40
2018-09-27T22:05:27.075Z,18.93
2018-09-27T22:07:55.779Z,20.37
2018-09-27T22:10:24.418Z,18.90
2018-09-27T22:12:53.138Z,18.93
2018-09-27T22:15:21.813Z,20.50
2018-09-27T22:17:50.461Z,20.03
2018-09-27T22:20:19.074Z,19.33
2018-09-27T22:22:47.716Z,19.93
2018-09-27T22:25:16.370Z,20.07
2018-09-27T22:27:45.099Z,19.80
2018-09-27T22:30:13.725Z,20.57
2018-09-27T22:32:42.371Z,21.83
2018-09-27T22:35:11.275Z,21.03
2018-09-27T22:37:39.852Z,21.17
2018-09-27T22:40:08.499Z,21.20
2018-09-27T22:42:37.484Z,21.50
2018-09-27T22:45:06.511Z,21.70
2018-09-27T22:47:35.143Z,21.20
2018-09-27T22:50:03.838Z,23.40
2018-09-27T22:52:32.463Z,22.83
2018-09-27T22:55:01.073Z,21.33
2018-09-27T22:57:29.752Z,21.20
2018-09-27T22:59:58.361Z,21.03
2018-09-27T23:02:27.015Z,22.17
2018-09-27T23:04:55.687Z,22.33
2018-09-27T23:07:24.327Z,21.43
2018-09-27T23:09:53.010Z,21.77
2018-09-27T23:12:21.651Z,19.30
2018-09-27T23:14:50.280Z,20.20
2018-09-27T23:17:18.915Z,21.40
2018-09-27T23:19:47.544Z,21.50
2018-09-27T23:22:16.192Z,22.10
2018-09-27T23:24:44.791Z,20.87
2018-09-27T23:27:13.452Z,20.93
2018-09-27T23:29:42.076Z,23.30
2018-09-27T23:32:10.714Z,21.13
2018-09-27T23:34:39.396Z,20.80
2018-09-27T23:37:08.049Z,22.53
2018-09-27T23:39:36.703Z,22.30
2018-09-27T23:42:05.356Z,22.77
2018-09-27T23:44:33.991Z,23.47
2018-09-27T23:47:02.655Z,23.60
2018-09-27T23:49:31.287Z,26.03
2018-09-27T23:52:00.032Z,25.87
2018-09-27T23:54:28.668Z,26.60
2018-09-27T23:56:57.284Z,27.87
2018-09-27T23:59:25.968Z,27.00
